createdAt,value
2023-05-07T00:02:26.445Z,23.60
2023-05-07T00:04:53.048Z,19.80
2023-05-07T00:07:19.445Z,20.87
2023-05-07T00:09:45.800Z,19.77
2023-05-07T00:12:12.156Z,24.60
2023-05-07T00:14:38.613Z,18.40
2023-05-07T00:17:05.049Z,19.13
2023-05-07T00:19:31.403Z,19.90
2023-05-07T00:21:57.854Z,18.17
2023-05-07T00:24:24.208Z,19.27
2023-05-07T00:26:51.053Z,20.07
2023-05-07T00:29:17.427Z,19.80
2023-05-07T00:31:43.839Z,18.33
2023-05-07T00:34:10.286Z,19.83
2023-05-07T00:36:36.641Z,22.57
2023-05-07T00:39:04.407Z,20.80
2023-05-07T00:41:33.688Z,23.00
2023-05-07T00:44:00.059Z,21.57
2023-05-07T00:46:26.875Z,22.27
2023-05-07T00:48:54.498Z,25.77
2023-05-07T00:51:21.024Z,23.60
2023-05-07T00:53:47.588Z,22.73
2023-05-07T00:56:14.054Z,23.10
2023-05-07T00:58:41.651Z,22.33
2023-05-07T01:01:08.532Z,26.80
2023-05-07T01:03:34.960Z,24.07
2023-05-07T01:06:03.418Z,23.97
2023-05-07T01:08:31.376Z,22.40
2023-05-07T01:10:58.270Z,24.13
2023-05-07T01:13:25.493Z,28.20
2023-05-07T01:15:52.240Z,28.90
2023-05-07T01:18:18.934Z,30.53
2023-05-07T01:20:46.097Z,27.97
2023-05-07T01:23:13.254Z,32.53
2023-05-07T01:25:39.770Z,26.80
2023-05-07T01:28:07.313Z,28.20
2023-05-07T01:30:37.193Z,24.90
2023-05-07T01:33:14.455Z,31.37
2023-05-07T01:35:48.299Z,27.33
2023-05-07T01:38:15.222Z,25.90
2023-05-07T01:40:42.263Z,29.37
2023-05-07T01:43:09.807Z,28.50
2023-05-07T01:45:37.301Z,30.03
2023-05-07T01:48:04.634Z,26.27
2023-05-07T01:50:32.670Z,27.53
2023-05-07T01:52:59.129Z,30.87
2023-05-07T01:55:25.638Z,33.57
2023-05-07T01:57:52.010Z,27.37
2023-05-07T02:00:19.908Z,28.20
2023-05-07T02:02:46.563Z,26.60
2023-05-07T02:05:28.391Z,28.50
2023-05-07T02:08:10.645Z,28.10
2023-05-07T02:10:37.519Z,26.93
2023-05-07T02:13:05.962Z,25.03
2023-05-07T02:15:32.384Z,30.87
2023-05-07T02:18:10.050Z,26.47
2023-05-07T02:20:36.687Z,27.63
2023-05-07T02:23:03.258Z,30.70
2023-05-07T02:25:31.013Z,27.30
2023-05-07T02:27:57.877Z,25.93
2023-05-07T02:30:33.997Z,29.47
2023-05-07T02:33:00.552Z,25.73
2023-05-07T02:35:27.475Z,30.30
2023-05-07T02:37:54.008Z,28.20
2023-05-07T02:40:21.094Z,27.70
2023-05-07T02:42:47.608Z,25.97
2023-05-07T02:45:15.293Z,23.90
2023-05-07T02:47:42.606Z,26.80
2023-05-07T02:50:09.566Z,25.40
2023-05-07T02:52:36.368Z,26.97
2023-05-07T02:55:03.468Z,27.93
2023-05-07T02:57:29.913Z,28.37
2023-05-07T02:59:58.795Z,29.27
2023-05-07T03:02:25.719Z,31.33
2023-05-07T03:04:52.670Z,26.40
2023-05-07T03:07:19.003Z,31.53
2023-05-07T03:09:45.443Z,31.77
2023-05-07T03:12:12.205Z,27.13
2023-05-07T03:14:38.541Z,31.00
2023-05-07T03:17:04.962Z,32.10
2023-05-07T03:19:31.618Z,27.37
2023-05-07T03:21:58.381Z,32.67
2023-05-07T03:24:24.704Z,34.00
2023-05-07T03:26:51.013Z,34.77
2023-05-07T03:29:17.402Z,30.47
2023-05-07T03:31:44.631Z,43.70
2023-05-07T03:34:11.057Z,29.00
2023-05-07T03:36:37.609Z,29.73
2023-05-07T03:39:11.262Z,30.40
2023-05-07T03:41:40.167Z,28.67
2023-05-07T03:44:06.887Z,34.60
2023-05-07T03:46:34.341Z,28.57
2023-05-07T03:49:01.157Z,39.57
2023-05-07T03:51:27.952Z,28.97
2023-05-07T03:53:54.512Z,38.63
2023-05-07T03:56:22.080Z,34.80
2023-05-07T03:58:55.058Z,33.10
2023-05-07T04:01:21.514Z,32.67
2023-05-07T04:03:48.467Z,36.47
2023-05-07T04:06:16.833Z,36.50
2023-05-07T04:08:45.199Z,25.87
2023-05-07T04:11:11.774Z,28.13
2023-05-07T04:13:38.141Z,24.57
2023-05-07T04:16:06.881Z,25.17
2023-05-07T04:18:35.590Z,25.90
2023-05-07T04:21:02.096Z,28.77
2023-05-07T04:23:28.433Z,27.30
2023-05-07T04:25:56.886Z,40.93
2023-05-07T04:28:29.406Z,30.67
2023-05-07T04:30:55.856Z,29.90
2023-05-07T04:33:22.721Z,29.73
2023-05-07T04:35:50.329Z,26.43
2023-05-07T04:38:17.364Z,30.63
2023-05-07T04:40:44.652Z,31.90
2023-05-07T04:43:15.051Z,40.70
2023-05-07T04:45:46.681Z,26.30
2023-05-07T04:48:15.485Z,24.47
2023-05-07T04:50:42.214Z,28.17
2023-05-07T04:53:09.024Z,36.17
2023-05-07T04:55:35.525Z,28.60
2023-05-07T04:58:02.890Z,28.80
2023-05-07T05:00:32.009Z,25.87
2023-05-07T05:02:59.113Z,26.07
2023-05-07T05:05:25.543Z,25.50
2023-05-07T05:07:54.049Z,22.07
2023-05-07T05:10:24.660Z,24.07
2023-05-07T05:12:51.805Z,25.63
2023-05-07T05:15:18.511Z,26.17
2023-05-07T05:17:45.312Z,22.80
2023-05-07T05:20:12.834Z,22.90
2023-05-07T05:22:42.188Z,20.90
2023-05-07T05:25:09.205Z,24.00
2023-05-07T05:27:36.197Z,22.80
2023-05-07T05:30:02.859Z,18.57
2023-05-07T05:32:30.985Z,19.47
2023-05-07T05:34:57.670Z,20.90
2023-05-07T05:37:24.562Z,23.00
2023-05-07T05:39:51.647Z,20.73
2023-05-07T05:42:18.932Z,19.57
2023-05-07T05:44:45.399Z,18.57
2023-05-07T05:47:12.260Z,21.77
2023-05-07T05:49:38.810Z,19.50
2023-05-07T05:52:06.561Z,22.90
2023-05-07T05:54:33.742Z,17.47
2023-05-07T05:57:00.284Z,17.33
2023-05-07T05:59:27.281Z,20.40
2023-05-07T06:01:54.041Z,18.57
2023-05-07T06:04:20.437Z,16.37
2023-05-07T06:06:47.061Z,17.43
2023-05-07T06:09:13.941Z,16.50
2023-05-07T06:11:43.361Z,15.70
2023-05-07T06:14:10.963Z,15.03
2023-05-07T06:16:38.972Z,14.40
2023-05-07T06:19:06.913Z,14.73
2023-05-07T06:21:33.912Z,13.60
2023-05-07T06:24:00.411Z,13.90
2023-05-07T06:26:27.277Z,12.73
2023-05-07T06:28:53.743Z,12.73
2023-05-07T06:31:21.530Z,11.43
2023-05-07T06:33:56.288Z,12.63
2023-05-07T06:36:25.560Z,11.17
2023-05-07T06:38:53.794Z,11.00
2023-05-07T06:41:21.499Z,10.37
2023-05-07T06:43:47.935Z,9.97
2023-05-07T06:46:28.052Z,10.33
2023-05-07T06:48:54.500Z,9.73
2023-05-07T06:51:20.892Z,10.50
2023-05-07T06:53:47.356Z,10.27
2023-05-07T06:56:13.790Z,11.00
2023-05-07T06:58:40.208Z,10.20
2023-05-07T07:01:07.535Z,10.97
2023-05-07T07:03:35.170Z,11.10
2023-05-07T07:06:03.019Z,12.90
2023-05-07T07:08:29.823Z,9.93
2023-05-07T07:10:56.553Z,9.10
2023-05-07T07:13:23.422Z,8.90
2023-05-07T07:15:50.099Z,8.50
2023-05-07T07:18:17.748Z,8.43
2023-05-07T07:20:46.235Z,8.77
2023-05-07T07:23:13.695Z,8.53
2023-05-07T07:25:40.242Z,8.23
2023-05-07T07:28:07.105Z,8.50
2023-05-07T07:30:33.583Z,8.03
2023-05-07T07:33:03.463Z,7.70
2023-05-07T07:35:33.848Z,8.20
2023-05-07T07:38:00.608Z,8.50
2023-05-07T07:40:27.033Z,8.17
2023-05-07T07:42:55.220Z,11.90
2023-05-07T07:45:22.506Z,7.60
2023-05-07T07:47:50.667Z,14.50
2023-05-07T07:50:31.677Z,8.73
2023-05-07T07:53:04.434Z,8.43
2023-05-07T07:55:32.041Z,7.77
2023-05-07T07:58:00.754Z,8.53
2023-05-07T08:00:27.152Z,7.83
2023-05-07T08:02:56.449Z,7.70
2023-05-07T08:05:27.923Z,7.37
2023-05-07T08:07:55.086Z,6.50
2023-05-07T08:10:26.406Z,8.43
2023-05-07T08:12:58.941Z,9.07
2023-05-07T08:15:25.400Z,7.57
2023-05-07T08:17:51.957Z,10.20
2023-05-07T08:20:18.805Z,8.20
2023-05-07T08:22:45.350Z,8.33
2023-05-07T08:25:11.941Z,9.57
2023-05-07T08:27:38.404Z,8.17
2023-05-07T08:30:05.745Z,10.30
2023-05-07T08:32:32.272Z,10.07
2023-05-07T08:34:58.742Z,10.40
2023-05-07T08:37:25.314Z,8.23
2023-05-07T08:39:51.737Z,8.50
2023-05-07T08:42:24.710Z,8.60
2023-05-07T08:44:54.121Z,8.77
2023-05-07T08:47:24.182Z,9.43
2023-05-07T08:49:52.663Z,8.47
2023-05-07T08:52:20.888Z,9.00
2023-05-07T08:54:47.497Z,8.67
2023-05-07T08:57:14.221Z,9.20
2023-05-07T08:59:41.847Z,9.93
2023-05-07T09:02:11.442Z,9.43
2023-05-07T09:04:39.031Z,9.43
2023-05-07T09:07:06.335Z,17.17
2023-05-07T09:09:36.328Z,11.73
2023-05-07T09:12:04.804Z,12.20
2023-05-07T09:14:33.722Z,13.57
2023-05-07T09:17:01.125Z,13.27
2023-05-07T09:19:28.468Z,13.10
2023-05-07T09:22:05.715Z,11.43
2023-05-07T09:24:48.662Z,11.07
2023-05-07T09:27:15.807Z,12.10
2023-05-07T09:29:45.250Z,11.73
2023-05-07T09:32:13.174Z,11.90
2023-05-07T09:34:39.767Z,12.10
2023-05-07T09:37:08.384Z,13.47
2023-05-07T09:39:42.384Z,10.27
2023-05-07T09:42:09.829Z,11.60
2023-05-07T09:44:37.176Z,11.40
2023-05-07T09:47:07.018Z,9.90
2023-05-07T09:49:43.120Z,13.43
2023-05-07T09:52:14.074Z,18.67
2023-05-07T09:54:48.334Z,11.87
2023-05-07T09:57:18.940Z,10.30
2023-05-07T09:59:50.201Z,13.03
2023-05-07T10:02:20.688Z,10.67
2023-05-07T10:04:51.612Z,9.50
2023-05-07T10:07:23.697Z,9.57
2023-05-07T10:09:54.915Z,9.47
2023-05-07T10:12:39.770Z,10.47
2023-05-07T10:15:12.786Z,8.67
2023-05-07T10:17:42.477Z,8.63
2023-05-07T10:20:10.769Z,9.63
2023-05-07T10:22:44.024Z,8.77
2023-05-07T10:25:18.741Z,8.93
2023-05-07T10:27:49.098Z,8.43
2023-05-07T10:30:15.754Z,8.57
2023-05-07T10:32:51.630Z,7.30
2023-05-07T10:35:30.393Z,5.77
2023-05-07T10:37:57.816Z,16.13
2023-05-07T10:40:27.001Z,5.43
2023-05-07T10:43:00.444Z,5.97
2023-05-07T10:45:29.782Z,7.03
2023-05-07T10:48:20.861Z,6.10
2023-05-07T10:51:19.815Z,6.77
2023-05-07T10:53:46.686Z,8.43
2023-05-07T10:56:18.479Z,7.43
2023-05-07T10:58:50.704Z,6.37
2023-05-07T11:02:08.502Z,6.90
2023-05-07T11:05:19.594Z,7.70
2023-05-07T11:07:56.242Z,6.27
2023-05-07T11:10:54.975Z,5.73
2023-05-07T11:13:47.103Z,6.20
2023-05-07T11:16:30.951Z,6.43
2023-05-07T11:19:05.576Z,4.60
2023-05-07T11:21:42.556Z,4.17
2023-05-07T11:24:19.929Z,5.17
2023-05-07T11:26:54.346Z,5.37
2023-05-07T11:29:23.364Z,8.17
2023-05-07T11:31:55.973Z,5.60
2023-05-07T11:34:27.187Z,7.23
2023-05-07T11:36:56.701Z,8.27
2023-05-07T11:39:36.769Z,5.23
2023-05-07T11:42:03.401Z,5.90
2023-05-07T11:44:46.860Z,8.53
2023-05-07T11:47:18.820Z,10.90
2023-05-07T11:49:48.828Z,4.97
2023-05-07T11:52:15.862Z,6.23
2023-05-07T11:54:42.270Z,4.60
2023-05-07T11:57:15.667Z,5.43
2023-05-07T11:59:42.109Z,5.03
2023-05-07T12:02:09.151Z,4.90
2023-05-07T12:04:35.705Z,5.60
2023-05-07T12:07:02.097Z,5.90
2023-05-07T12:09:28.470Z,6.63
2023-05-07T12:11:56.957Z,5.73
2023-05-07T12:14:23.287Z,6.97
2023-05-07T12:16:49.784Z,6.50
2023-05-07T12:19:16.280Z,6.17
2023-05-07T12:21:42.904Z,6.30
2023-05-07T12:24:09.278Z,6.33
2023-05-07T12:26:39.298Z,7.33
2023-05-07T12:29:05.742Z,7.73
2023-05-07T12:31:32.255Z,6.57
2023-05-07T12:33:58.667Z,7.30
2023-05-07T12:36:25.691Z,8.07
2023-05-07T12:38:52.231Z,8.07
2023-05-07T12:41:19.220Z,7.30
2023-05-07T12:43:46.550Z,7.20
2023-05-07T12:46:14.683Z,7.00
2023-05-07T12:48:46.438Z,5.70
2023-05-07T12:51:14.477Z,6.80
2023-05-07T12:53:44.870Z,6.10
2023-05-07T12:56:11.362Z,7.03
2023-05-07T12:58:37.972Z,7.03
2023-05-07T13:01:10.686Z,6.40
2023-05-07T13:03:38.984Z,6.77
2023-05-07T13:06:10.290Z,5.47
2023-05-07T13:08:38.647Z,4.57
2023-05-07T13:11:05.783Z,6.50
2023-05-07T13:13:33.306Z,7.20
2023-05-07T13:16:01.184Z,8.17
2023-05-07T13:18:28.189Z,6.93
2023-05-07T13:20:54.857Z,7.87
2023-05-07T13:23:21.442Z,9.93
2023-05-07T13:25:49.092Z,7.33
2023-05-07T13:28:17.037Z,7.13
2023-05-07T13:30:43.724Z,7.90
2023-05-07T13:33:10.381Z,8.00
2023-05-07T13:35:36.885Z,7.43
2023-05-07T13:38:03.353Z,6.17
2023-05-07T13:40:29.800Z,6.40
2023-05-07T13:42:59.370Z,7.50
2023-05-07T13:45:30.394Z,6.87
2023-05-07T13:47:58.018Z,9.23
2023-05-07T13:50:24.669Z,7.60
2023-05-07T13:52:53.976Z,7.37
2023-05-07T13:55:25.302Z,8.23
2023-05-07T13:57:59.229Z,7.47
2023-05-07T14:00:27.339Z,7.50
2023-05-07T14:02:54.598Z,7.57
2023-05-07T14:05:21.209Z,7.60
2023-05-07T14:07:48.614Z,7.50
2023-05-07T14:10:15.422Z,7.67
2023-05-07T14:12:42.194Z,7.23
2023-05-07T14:15:09.119Z,8.67
2023-05-07T14:17:35.665Z,8.20
2023-05-07T14:20:02.174Z,7.47
2023-05-07T14:22:28.583Z,7.83
2023-05-07T14:25:05.833Z,7.33
2023-05-07T14:27:32.832Z,8.47
2023-05-07T14:29:59.312Z,10.00
2023-05-07T14:32:25.775Z,9.90
2023-05-07T14:34:52.248Z,9.73
2023-05-07T14:37:20.676Z,10.40
2023-05-07T14:39:49.784Z,11.83
2023-05-07T14:42:16.741Z,10.10
2023-05-07T14:44:43.236Z,16.33
2023-05-07T14:47:09.755Z,11.60
2023-05-07T14:49:36.448Z,10.70
2023-05-07T14:52:03.347Z,11.03
2023-05-07T14:54:29.933Z,11.67
2023-05-07T14:56:56.751Z,12.37
2023-05-07T14:59:25.750Z,9.27
2023-05-07T15:01:52.246Z,9.50
2023-05-07T15:04:18.919Z,11.63
2023-05-07T15:06:45.398Z,10.73
2023-05-07T15:09:11.796Z,10.47
2023-05-07T15:11:38.293Z,10.53
2023-05-07T15:14:04.872Z,11.47
2023-05-07T15:16:31.341Z,10.63
2023-05-07T15:18:57.750Z,12.00
2023-05-07T15:21:24.313Z,10.87
2023-05-07T15:23:50.737Z,10.83
2023-05-07T15:26:17.102Z,11.70
2023-05-07T15:28:43.531Z,11.23
2023-05-07T15:31:10.079Z,13.47
2023-05-07T15:33:36.504Z,11.73
2023-05-07T15:36:04.090Z,11.20
2023-05-07T15:38:30.912Z,10.33
2023-05-07T15:40:57.299Z,11.33
2023-05-07T15:43:23.783Z,12.20
2023-05-07T15:45:50.323Z,11.87
2023-05-07T15:48:16.826Z,11.33
2023-05-07T15:50:43.468Z,12.20
2023-05-07T15:53:10.414Z,11.73
2023-05-07T15:55:36.842Z,12.10
2023-05-07T15:58:04.986Z,13.47
2023-05-07T16:00:31.354Z,12.53
2023-05-07T16:02:58.078Z,12.17
2023-05-07T16:05:24.732Z,16.33
2023-05-07T16:07:51.149Z,11.93
2023-05-07T16:10:17.579Z,11.47
2023-05-07T16:12:44.197Z,11.77
2023-05-07T16:15:11.411Z,12.03
2023-05-07T16:17:38.194Z,11.37
2023-05-07T16:20:06.381Z,11.13
2023-05-07T16:22:33.069Z,12.33
2023-05-07T16:24:59.485Z,11.07
2023-05-07T16:27:26.253Z,10.97
2023-05-07T16:29:52.830Z,13.10
2023-05-07T16:32:19.335Z,12.03
2023-05-07T16:34:46.386Z,11.93
2023-05-07T16:37:13.325Z,12.40
2023-05-07T16:39:39.820Z,11.63
2023-05-07T16:42:06.210Z,10.63
2023-05-07T16:44:32.570Z,10.10
2023-05-07T16:46:58.952Z,9.73
2023-05-07T16:49:25.361Z,11.20
2023-05-07T16:51:51.718Z,9.43
2023-05-07T16:54:18.075Z,9.13
2023-05-07T16:56:44.435Z,9.00
2023-05-07T16:59:10.927Z,9.30
2023-05-07T17:01:37.387Z,8.97
2023-05-07T17:04:03.998Z,7.33
2023-05-07T17:06:31.602Z,7.70
2023-05-07T17:08:58.240Z,7.47
2023-05-07T17:11:28.241Z,7.80
2023-05-07T17:13:54.776Z,7.70
2023-05-07T17:16:21.209Z,8.23
2023-05-07T17:18:47.584Z,6.87
2023-05-07T17:21:13.951Z,8.00
2023-05-07T17:23:40.429Z,7.10
2023-05-07T17:26:13.759Z,7.43
2023-05-07T17:28:40.219Z,7.93
2023-05-07T17:31:06.765Z,7.47
2023-05-07T17:33:33.195Z,6.00
2023-05-07T17:36:02.836Z,7.97
2023-05-07T17:38:30.426Z,8.17
2023-05-07T17:40:58.432Z,8.63
2023-05-07T17:43:25.024Z,8.23
2023-05-07T17:45:51.612Z,7.43
2023-05-07T17:48:18.367Z,7.93
2023-05-07T17:50:45.251Z,7.30
2023-05-07T17:53:12.144Z,8.10
2023-05-07T17:55:43.488Z,7.90
2023-05-07T17:58:09.966Z,7.30
2023-05-07T18:00:36.566Z,6.73
2023-05-07T18:03:03.574Z,7.23
2023-05-07T18:05:30.489Z,6.03
2023-05-07T18:07:56.991Z,6.17
2023-05-07T18:10:23.494Z,6.30
2023-05-07T18:12:49.949Z,6.17
2023-05-07T18:15:16.361Z,6.33
2023-05-07T18:17:42.793Z,6.23
2023-05-07T18:20:11.461Z,7.03
2023-05-07T18:22:38.776Z,7.40
2023-05-07T18:25:05.927Z,7.33
2023-05-07T18:27:32.322Z,7.63
2023-05-07T18:29:58.710Z,8.20
2023-05-07T18:32:25.242Z,10.77
2023-05-07T18:34:52.866Z,9.57
2023-05-07T18:37:29.990Z,11.00
2023-05-07T18:39:57.123Z,11.30
2023-05-07T18:42:23.486Z,10.10
2023-05-07T18:44:50.367Z,12.87
2023-05-07T18:47:17.115Z,10.40
2023-05-07T18:49:43.489Z,12.23
2023-05-07T18:52:09.861Z,11.73
2023-05-07T18:54:36.267Z,11.50
2023-05-07T18:57:02.963Z,10.97
2023-05-07T18:59:29.686Z,11.13
2023-05-07T19:01:56.223Z,13.10
2023-05-07T19:04:24.322Z,12.17
2023-05-07T19:06:50.780Z,11.50
2023-05-07T19:09:17.213Z,11.13
2023-05-07T19:11:43.678Z,12.85
2023-05-07T19:14:11.098Z,11.57
2023-05-07T19:16:37.755Z,10.93
2023-05-07T19:19:05.537Z,12.07
2023-05-07T19:21:32.022Z,12.53
2023-05-07T19:23:58.389Z,13.40
2023-05-07T19:26:25.005Z,12.13
2023-05-07T19:29:01.696Z,13.03
2023-05-07T19:31:39.405Z,11.47
2023-05-07T19:34:05.792Z,11.03
2023-05-07T19:36:34.370Z,13.97
2023-05-07T19:39:00.991Z,13.20
2023-05-07T19:41:28.297Z,11.17
2023-05-07T19:43:54.718Z,9.60
2023-05-07T19:46:21.203Z,10.17
2023-05-07T19:48:47.616Z,9.40
2023-05-07T19:51:14.035Z,8.80
2023-05-07T19:53:40.534Z,12.47
2023-05-07T19:56:08.415Z,6.80
2023-05-07T19:58:35.647Z,6.17
2023-05-07T20:01:03.419Z,5.97
2023-05-07T20:03:31.361Z,6.10
2023-05-07T20:05:57.947Z,5.83
2023-05-07T20:08:24.628Z,5.63
2023-05-07T20:10:51.533Z,5.27
2023-05-07T20:13:18.512Z,5.90
2023-05-07T20:15:45.089Z,6.37
2023-05-07T20:18:11.576Z,7.37
2023-05-07T20:20:37.954Z,6.57
2023-05-07T20:23:04.324Z,7.03
2023-05-07T20:25:30.797Z,8.90
2023-05-07T20:27:57.349Z,9.93
2023-05-07T20:30:24.509Z,9.00
2023-05-07T20:32:51.091Z,9.50
2023-05-07T20:35:22.485Z,10.03
2023-05-07T20:37:48.898Z,10.13
2023-05-07T20:40:15.718Z,9.87
2023-05-07T20:42:42.625Z,10.47
2023-05-07T20:45:10.238Z,9.97
2023-05-07T20:47:36.758Z,10.40
2023-05-07T20:50:03.393Z,9.77
2023-05-07T20:52:29.796Z,11.87
2023-05-07T20:54:56.297Z,10.87
2023-05-07T20:57:22.971Z,12.57
2023-05-07T20:59:49.395Z,12.50
2023-05-07T21:02:16.250Z,12.00
2023-05-07T21:04:42.944Z,13.00
2023-05-07T21:07:09.671Z,13.90
2023-05-07T21:09:36.343Z,14.10
2023-05-07T21:12:03.035Z,13.20
2023-05-07T21:14:29.421Z,13.67
2023-05-07T21:16:55.853Z,14.90
2023-05-07T21:19:22.350Z,15.83
2023-05-07T21:21:48.834Z,14.93
2023-05-07T21:24:15.385Z,14.93
2023-05-07T21:26:41.868Z,16.87
2023-05-07T21:29:09.010Z,15.40
2023-05-07T21:31:35.551Z,14.93
2023-05-07T21:34:02.101Z,14.53
2023-05-07T21:36:28.747Z,15.77
2023-05-07T21:38:55.340Z,16.70
2023-05-07T21:41:21.753Z,16.10
2023-05-07T21:43:48.127Z,17.40
2023-05-07T21:46:14.582Z,22.10
2023-05-07T21:48:41.190Z,16.93
2023-05-07T21:51:08.838Z,16.23
2023-05-07T21:53:35.959Z,16.30
2023-05-07T21:56:04.532Z,17.30
2023-05-07T21:58:31.265Z,17.73
2023-05-07T22:00:58.541Z,15.83
2023-05-07T22:03:25.045Z,17.67
2023-05-07T22:05:51.545Z,16.73
2023-05-07T22:08:18.317Z,16.13
2023-05-07T22:10:44.725Z,17.03
2023-05-07T22:13:11.114Z,17.10
2023-05-07T22:15:49.079Z,16.87
2023-05-07T22:18:22.997Z,16.00
2023-05-07T22:20:51.622Z,17.07
2023-05-07T22:23:18.044Z,16.97
2023-05-07T22:25:44.442Z,17.47
2023-05-07T22:28:10.803Z,16.93
2023-05-07T22:30:37.302Z,17.50
2023-05-07T22:33:03.753Z,17.60
2023-05-07T22:35:30.223Z,18.30
2023-05-07T22:37:56.606Z,16.70
2023-05-07T22:40:22.987Z,16.03
2023-05-07T22:42:49.511Z,17.07
2023-05-07T22:45:16.057Z,20.43
2023-05-07T22:47:42.505Z,17.20
2023-05-07T22:50:09.292Z,18.43
2023-05-07T22:52:35.991Z,17.43
2023-05-07T22:55:02.454Z,17.87
2023-05-07T22:57:28.939Z,18.03
2023-05-07T22:59:56.369Z,22.07
2023-05-07T23:02:23.465Z,17.53
2023-05-07T23:04:50.006Z,16.77
2023-05-07T23:07:16.407Z,23.73
2023-05-07T23:09:42.777Z,16.53
2023-05-07T23:12:09.542Z,20.20
2023-05-07T23:14:35.959Z,17.20
2023-05-07T23:17:02.619Z,16.90
2023-05-07T23:19:29.101Z,17.50
2023-05-07T23:21:55.573Z,16.60
2023-05-07T23:24:21.984Z,18.37
2023-05-07T23:26:48.351Z,16.87
2023-05-07T23:29:14.768Z,17.97
2023-05-07T23:31:41.251Z,18.87
2023-05-07T23:34:07.811Z,17.23
2023-05-07T23:36:34.213Z,17.40
2023-05-07T23:39:00.599Z,19.67
2023-05-07T23:41:27.073Z,16.93
2023-05-07T23:43:53.518Z,17.47
2023-05-07T23:46:20.102Z,18.67
2023-05-07T23:48:46.478Z,17.57
2023-05-07T23:51:12.897Z,18.50
2023-05-07T23:53:39.252Z,18.87
2023-05-07T23:56:05.883Z,18.33
2023-05-07T23:58:32.276Z,18.10
